sensor_id;sensor_type;location;lat;lon;timestamp;P1;durP1;ratioP1;P2;durP2;ratioP2
78901;SDS011;70441;44.758;37.686;2023-12-22T00:00:52;13.93;;;6.13;;
78901;SDS011;70441;44.758;37.686;2023-12-22T00:01:54;15.38;;;6.18;;
78901;SDS011;70441;44.758;37.686;2023-12-22T00:02:56;18.45;;;6.18;;
78901;SDS011;70441;44.758;37.686;2023-12-22T00:04:00;14.43;;;6.30;;
78901;SDS011;70441;44.758;37.686;2023-12-22T00:05:02;19.00;;;6.88;;
78901;SDS011;70441;44.758;37.686;2023-12-22T00:06:07;16.52;;;6.20;;
78901;SDS011;70441;44.758;37.686;2023-12-22T00:07:09;14.85;;;6.07;;
78901;SDS011;70441;44.758;37.686;2023-12-22T00:08:13;16.02;;;7.13;;
78901;SDS011;70441;44.758;37.686;2023-12-22T00:09:15;13.82;;;6.13;;
78901;SDS011;70441;44.758;37.686;2023-12-22T00:10:17;15.68;;;7.00;;
78901;SDS011;70441;44.758;37.686;2023-12-22T00:11:19;18.15;;;7.18;;
78901;SDS011;70441;44.758;37.686;2023-12-22T00:12:23;18.05;;;6.68;;
78901;SDS011;70441;44.758;37.686;2023-12-22T00:13:25;15.45;;;6.30;;
78901;SDS011;70441;44.758;37.686;2023-12-22T00:14:30;13.80;;;6.55;;
78901;SDS011;70441;44.758;37.686;2023-12-22T00:15:32;15.13;;;6.70;;
78901;SDS011;70441;44.758;37.686;2023-12-22T00:16:37;17.80;;;6.10;;
78901;SDS011;70441;44.758;37.686;2023-12-22T00:18:57;17.17;;;6.28;;
78901;SDS011;70441;44.758;37.686;2023-12-22T00:20:03;16.63;;;6.40;;
78901;SDS011;70441;44.758;37.686;2023-12-22T00:21:09;15.23;;;6.13;;
78901;SDS011;70441;44.758;37.686;2023-12-22T00:22:15;15.45;;;6.53;;
78901;SDS011;70441;44.758;37.686;2023-12-22T00:24:22;15.63;;;6.10;;
78901;SDS011;70441;44.758;37.686;2023-12-22T00:25:25;15.82;;;6.57;;
78901;SDS011;70441;44.758;37.686;2023-12-22T00:26:29;18.58;;;6.82;;
78901;SDS011;70441;44.758;37.686;2023-12-22T00:27:31;12.93;;;5.93;;
78901;SDS011;70441;44.758;37.686;2023-12-22T00:28:34;17.20;;;6.20;;
78901;SDS011;70441;44.758;37.686;2023-12-22T00:29:38;15.50;;;6.22;;
78901;SDS011;70441;44.758;37.686;2023-12-22T00:31:42;17.83;;;6.20;;
78901;SDS011;70441;44.758;37.686;2023-12-22T00:32:47;14.57;;;6.25;;
78901;SDS011;70441;44.758;37.686;2023-12-22T00:33:49;14.32;;;6.32;;
78901;SDS011;70441;44.758;37.686;2023-12-22T00:34:52;15.63;;;6.88;;
78901;SDS011;70441;44.758;37.686;2023-12-22T00:36:02;15.27;;;6.47;;
78901;SDS011;70441;44.758;37.686;2023-12-22T00:37:08;16.10;;;6.60;;
78901;SDS011;70441;44.758;37.686;2023-12-22T00:39:27;13.55;;;6.15;;
78901;SDS011;70441;44.758;37.686;2023-12-22T00:40:29;18.35;;;6.25;;
78901;SDS011;70441;44.758;37.686;2023-12-22T00:41:41;14.15;;;5.80;;
78901;SDS011;70441;44.758;37.686;2023-12-22T00:43:45;12.32;;;6.20;;
78901;SDS011;70441;44.758;37.686;2023-12-22T00:45:49;15.90;;;5.65;;
78901;SDS011;70441;44.758;37.686;2023-12-22T00:46:51;17.38;;;6.00;;
78901;SDS011;70441;44.758;37.686;2023-12-22T00:47:57;11.98;;;5.57;;
78901;SDS011;70441;44.758;37.686;2023-12-22T00:48:59;14.48;;;5.53;;
78901;SDS011;70441;44.758;37.686;2023-12-22T00:50:04;12.85;;;5.47;;
78901;SDS011;70441;44.758;37.686;2023-12-22T00:51:06;13.55;;;6.22;;
78901;SDS011;70441;44.758;37.686;2023-12-22T00:52:09;15.82;;;6.10;;
78901;SDS011;70441;44.758;37.686;2023-12-22T00:53:11;17.27;;;6.20;;
78901;SDS011;70441;44.758;37.686;2023-12-22T00:54:14;17.33;;;7.00;;
78901;SDS011;70441;44.758;37.686;2023-12-22T00:55:16;16.08;;;6.47;;
78901;SDS011;70441;44.758;37.686;2023-12-22T00:56:19;19.38;;;5.95;;
78901;SDS011;70441;44.758;37.686;2023-12-22T00:57:22;16.83;;;6.20;;
78901;SDS011;70441;44.758;37.686;2023-12-22T00:58:25;18.33;;;6.30;;
78901;SDS011;70441;44.758;37.686;2023-12-22T00:59:27;18.23;;;6.30;;
78901;SDS011;70441;44.758;37.686;2023-12-22T01:00:29;15.68;;;6.70;;
78901;SDS011;70441;44.758;37.686;2023-12-22T01:01:34;16.00;;;6.70;;
78901;SDS011;70441;44.758;37.686;2023-12-22T01:02:36;15.18;;;6.18;;
78901;SDS011;70441;44.758;37.686;2023-12-22T01:03:38;14.30;;;6.32;;
78901;SDS011;70441;44.758;37.686;2023-12-22T01:05:50;18.13;;;5.80;;
78901;SDS011;70441;44.758;37.686;2023-12-22T01:07:57;15.57;;;6.25;;
78901;SDS011;70441;44.758;37.686;2023-12-22T01:08:59;23.27;;;5.88;;
78901;SDS011;70441;44.758;37.686;2023-12-22T01:10:02;15.50;;;6.70;;
78901;SDS011;70441;44.758;37.686;2023-12-22T01:11:07;14.02;;;6.35;;
78901;SDS011;70441;44.758;37.686;2023-12-22T01:13:12;13.30;;;5.75;;
78901;SDS011;70441;44.758;37.686;2023-12-22T01:16:46;17.38;;;6.88;;
78901;SDS011;70441;44.758;37.686;2023-12-22T01:18:50;14.68;;;6.15;;
78901;SDS011;70441;44.758;37.686;2023-12-22T01:19:59;17.27;;;6.85;;
78901;SDS011;70441;44.758;37.686;2023-12-22T01:21:01;13.85;;;6.57;;
78901;SDS011;70441;44.758;37.686;2023-12-22T01:23:32;15.35;;;5.85;;
78901;SDS011;70441;44.758;37.686;2023-12-22T01:24:35;13.52;;;6.28;;
78901;SDS011;70441;44.758;37.686;2023-12-22T01:25:40;16.88;;;6.22;;
78901;SDS011;70441;44.758;37.686;2023-12-22T01:26:46;14.18;;;6.57;;
78901;SDS011;70441;44.758;37.686;2023-12-22T01:27:49;17.30;;;6.47;;
78901;SDS011;70441;44.758;37.686;2023-12-22T01:28:54;15.02;;;6.47;;
78901;SDS011;70441;44.758;37.686;2023-12-22T01:30:00;15.82;;;6.43;;
78901;SDS011;70441;44.758;37.686;2023-12-22T01:31:02;17.80;;;6.50;;
78901;SDS011;70441;44.758;37.686;2023-12-22T01:32:07;13.40;;;6.75;;
78901;SDS011;70441;44.758;37.686;2023-12-22T01:33:09;16.20;;;6.50;;
78901;SDS011;70441;44.758;37.686;2023-12-22T01:35:15;15.20;;;5.43;;
78901;SDS011;70441;44.758;37.686;2023-12-22T01:36:18;14.35;;;5.88;;
78901;SDS011;70441;44.758;37.686;2023-12-22T01:37:21;15.35;;;5.95;;
78901;SDS011;70441;44.758;37.686;2023-12-22T01:38:24;16.80;;;6.25;;
78901;SDS011;70441;44.758;37.686;2023-12-22T01:39:27;13.55;;;6.45;;
78901;SDS011;70441;44.758;37.686;2023-12-22T01:40:29;14.38;;;6.13;;
78901;SDS011;70441;44.758;37.686;2023-12-22T01:41:32;17.25;;;6.22;;
78901;SDS011;70441;44.758;37.686;2023-12-22T01:46:09;17.48;;;6.22;;
78901;SDS011;70441;44.758;37.686;2023-12-22T01:49:14;16.17;;;6.20;;
78901;SDS011;70441;44.758;37.686;2023-12-22T01:51:19;15.88;;;5.53;;
78901;SDS011;70441;44.758;37.686;2023-12-22T01:52:22;13.05;;;5.85;;
78901;SDS011;70441;44.758;37.686;2023-12-22T01:53:25;15.52;;;6.30;;
78901;SDS011;70441;44.758;37.686;2023-12-22T01:54:28;16.13;;;6.07;;
78901;SDS011;70441;44.758;37.686;2023-12-22T01:55:34;14.27;;;5.70;;
78901;SDS011;70441;44.758;37.686;2023-12-22T01:56:39;15.00;;;6.70;;
78901;SDS011;70441;44.758;37.686;2023-12-22T01:57:41;19.55;;;6.18;;
78901;SDS011;70441;44.758;37.686;2023-12-22T02:01:52;14.77;;;6.03;;
78901;SDS011;70441;44.758;37.686;2023-12-22T02:04:10;12.35;;;6.15;;
78901;SDS011;70441;44.758;37.686;2023-12-22T02:05:16;15.27;;;6.43;;
78901;SDS011;70441;44.758;37.686;2023-12-22T02:06:19;16.40;;;6.38;;
78901;SDS011;70441;44.758;37.686;2023-12-22T02:07:23;17.60;;;6.25;;
78901;SDS011;70441;44.758;37.686;2023-12-22T02:08:25;16.05;;;5.57;;
78901;SDS011;70441;44.758;37.686;2023-12-22T02:11:11;13.85;;;5.72;;
78901;SDS011;70441;44.758;37.686;2023-12-22T02:12:13;14.02;;;6.00;;
78901;SDS011;70441;44.758;37.686;2023-12-22T02:14:17;12.93;;;4.95;;
78901;SDS011;70441;44.758;37.686;2023-12-22T02:15:20;13.52;;;5.28;;
78901;SDS011;70441;44.758;37.686;2023-12-22T02:16:31;10.30;;;5.28;;
78901;SDS011;70441;44.758;37.686;2023-12-22T02:17:46;16.48;;;5.80;;
78901;SDS011;70441;44.758;37.686;2023-12-22T02:18:56;15.95;;;5.68;;
78901;SDS011;70441;44.758;37.686;2023-12-22T02:20:01;13.57;;;5.22;;
78901;SDS011;70441;44.758;37.686;2023-12-22T02:21:04;15.82;;;5.50;;
78901;SDS011;70441;44.758;37.686;2023-12-22T02:22:06;15.13;;;5.40;;
78901;SDS011;70441;44.758;37.686;2023-12-22T02:23:10;16.30;;;5.70;;
78901;SDS011;70441;44.758;37.686;2023-12-22T02:24:12;14.90;;;5.95;;
78901;SDS011;70441;44.758;37.686;2023-12-22T02:25:14;19.17;;;6.03;;
78901;SDS011;70441;44.758;37.686;2023-12-22T02:28:29;13.05;;;4.93;;
78901;SDS011;70441;44.758;37.686;2023-12-22T02:29:41;15.70;;;5.10;;
78901;SDS011;70441;44.758;37.686;2023-12-22T02:32:35;17.08;;;5.78;;
78901;SDS011;70441;44.758;37.686;2023-12-22T02:33:43;15.68;;;5.47;;
78901;SDS011;70441;44.758;37.686;2023-12-22T02:34:48;12.10;;;5.80;;
78901;SDS011;70441;44.758;37.686;2023-12-22T02:35:54;16.00;;;5.63;;
78901;SDS011;70441;44.758;37.686;2023-12-22T02:37:04;14.00;;;5.60;;
78901;SDS011;70441;44.758;37.686;2023-12-22T02:38:14;14.82;;;5.18;;
78901;SDS011;70441;44.758;37.686;2023-12-22T02:39:17;14.88;;;5.40;;
78901;SDS011;70441;44.758;37.686;2023-12-22T02:40:21;13.45;;;5.05;;
78901;SDS011;70441;44.758;37.686;2023-12-22T02:41:24;12.88;;;5.18;;
78901;SDS011;70441;44.758;37.686;2023-12-22T02:43:32;12.25;;;4.88;;
78901;SDS011;70441;44.758;37.686;2023-12-22T02:44:37;14.77;;;5.45;;
78901;SDS011;70441;44.758;37.686;2023-12-22T02:45:39;15.00;;;5.05;;
78901;SDS011;70441;44.758;37.686;2023-12-22T02:46:42;12.30;;;5.05;;
78901;SDS011;70441;44.758;37.686;2023-12-22T02:47:45;15.93;;;4.88;;
78901;SDS011;70441;44.758;37.686;2023-12-22T02:49:49;11.63;;;4.75;;
78901;SDS011;70441;44.758;37.686;2023-12-22T02:50:50;11.95;;;4.63;;
78901;SDS011;70441;44.758;37.686;2023-12-22T02:51:52;12.15;;;4.57;;
78901;SDS011;70441;44.758;37.686;2023-12-22T02:52:53;12.50;;;5.15;;
78901;SDS011;70441;44.758;37.686;2023-12-22T02:53:55;13.68;;;6.43;;
78901;SDS011;70441;44.758;37.686;2023-12-22T02:54:57;13.05;;;5.35;;
78901;SDS011;70441;44.758;37.686;2023-12-22T02:55:58;11.82;;;5.20;;
78901;SDS011;70441;44.758;37.686;2023-12-22T02:57:00;11.80;;;5.43;;
78901;SDS011;70441;44.758;37.686;2023-12-22T02:58:01;9.02;;;4.20;;
78901;SDS011;70441;44.758;37.686;2023-12-22T02:59:03;14.68;;;4.75;;
78901;SDS011;70441;44.758;37.686;2023-12-22T03:00:04;11.82;;;4.70;;
78901;SDS011;70441;44.758;37.686;2023-12-22T03:01:07;14.00;;;5.18;;
78901;SDS011;70441;44.758;37.686;2023-12-22T03:02:08;12.35;;;4.30;;
78901;SDS011;70441;44.758;37.686;2023-12-22T03:03:09;11.50;;;4.10;;
78901;SDS011;70441;44.758;37.686;2023-12-22T03:04:11;11.43;;;4.32;;
78901;SDS011;70441;44.758;37.686;2023-12-22T03:05:12;13.30;;;5.43;;
78901;SDS011;70441;44.758;37.686;2023-12-22T03:06:14;10.85;;;4.80;;
78901;SDS011;70441;44.758;37.686;2023-12-22T03:07:15;14.68;;;4.82;;
78901;SDS011;70441;44.758;37.686;2023-12-22T03:08:17;13.90;;;4.13;;
78901;SDS011;70441;44.758;37.686;2023-12-22T03:09:19;10.55;;;4.47;;
78901;SDS011;70441;44.758;37.686;2023-12-22T03:10:20;11.02;;;4.75;;
78901;SDS011;70441;44.758;37.686;2023-12-22T03:11:22;9.70;;;4.10;;
78901;SDS011;70441;44.758;37.686;2023-12-22T03:12:23;10.32;;;3.95;;
78901;SDS011;70441;44.758;37.686;2023-12-22T03:13:25;7.75;;;4.10;;
78901;SDS011;70441;44.758;37.686;2023-12-22T03:14:26;12.80;;;4.35;;
78901;SDS011;70441;44.758;37.686;2023-12-22T03:15:32;11.68;;;3.92;;
78901;SDS011;70441;44.758;37.686;2023-12-22T03:16:33;11.25;;;4.45;;
78901;SDS011;70441;44.758;37.686;2023-12-22T03:17:35;7.90;;;3.70;;
78901;SDS011;70441;44.758;37.686;2023-12-22T03:18:39;8.20;;;3.75;;
78901;SDS011;70441;44.758;37.686;2023-12-22T03:19:41;11.23;;;3.85;;
78901;SDS011;70441;44.758;37.686;2023-12-22T03:20:42;10.15;;;4.95;;
78901;SDS011;70441;44.758;37.686;2023-12-22T03:21:44;12.07;;;3.80;;
78901;SDS011;70441;44.758;37.686;2023-12-22T03:22:45;9.07;;;3.72;;
78901;SDS011;70441;44.758;37.686;2023-12-22T03:23:47;6.90;;;3.53;;
78901;SDS011;70441;44.758;37.686;2023-12-22T03:24:48;8.77;;;4.00;;
78901;SDS011;70441;44.758;37.686;2023-12-22T03:25:50;11.90;;;4.63;;
78901;SDS011;70441;44.758;37.686;2023-12-22T03:26:51;11.75;;;3.60;;
78901;SDS011;70441;44.758;37.686;2023-12-22T03:27:53;12.98;;;5.03;;
78901;SDS011;70441;44.758;37.686;2023-12-22T03:28:55;7.32;;;3.38;;
78901;SDS011;70441;44.758;37.686;2023-12-22T03:29:56;27.17;;;17.77;;
78901;SDS011;70441;44.758;37.686;2023-12-22T03:30:58;16.80;;;9.43;;
78901;SDS011;70441;44.758;37.686;2023-12-22T03:31:59;11.68;;;6.68;;
78901;SDS011;70441;44.758;37.686;2023-12-22T03:33:06;15.25;;;7.30;;
78901;SDS011;70441;44.758;37.686;2023-12-22T03:34:08;14.35;;;8.73;;
78901;SDS011;70441;44.758;37.686;2023-12-22T03:35:10;14.73;;;10.52;;
78901;SDS011;70441;44.758;37.686;2023-12-22T03:36:12;11.15;;;6.43;;
78901;SDS011;70441;44.758;37.686;2023-12-22T03:37:14;16.10;;;10.30;;
78901;SDS011;70441;44.758;37.686;2023-12-22T03:38:15;14.45;;;9.52;;
78901;SDS011;70441;44.758;37.686;2023-12-22T03:39:17;17.77;;;13.73;;
78901;SDS011;70441;44.758;37.686;2023-12-22T03:40:18;17.75;;;13.52;;
78901;SDS011;70441;44.758;37.686;2023-12-22T03:41:20;10.15;;;5.38;;
78901;SDS011;70441;44.758;37.686;2023-12-22T03:42:23;13.88;;;8.02;;
78901;SDS011;70441;44.758;37.686;2023-12-22T03:44:09;19.70;;;17.48;;
78901;SDS011;70441;44.758;37.686;2023-12-22T03:45:28;29.95;;;26.98;;
78901;SDS011;70441;44.758;37.686;2023-12-22T03:46:30;11.98;;;7.60;;
78901;SDS011;70441;44.758;37.686;2023-12-22T03:47:31;12.65;;;5.63;;
78901;SDS011;70441;44.758;37.686;2023-12-22T03:48:33;18.23;;;13.25;;
78901;SDS011;70441;44.758;37.686;2023-12-22T03:49:34;14.73;;;10.23;;
78901;SDS011;70441;44.758;37.686;2023-12-22T03:50:36;10.90;;;7.28;;
78901;SDS011;70441;44.758;37.686;2023-12-22T03:51:37;11.20;;;6.38;;
78901;SDS011;70441;44.758;37.686;2023-12-22T03:52:39;17.60;;;12.55;;
78901;SDS011;70441;44.758;37.686;2023-12-22T03:53:41;10.75;;;6.30;;
78901;SDS011;70441;44.758;37.686;2023-12-22T03:54:43;8.40;;;4.45;;
78901;SDS011;70441;44.758;37.686;2023-12-22T03:55:44;12.35;;;6.15;;
78901;SDS011;70441;44.758;37.686;2023-12-22T03:56:46;7.80;;;5.30;;
78901;SDS011;70441;44.758;37.686;2023-12-22T03:57:47;14.60;;;11.25;;
78901;SDS011;70441;44.758;37.686;2023-12-22T03:58:49;9.82;;;5.72;;
78901;SDS011;70441;44.758;37.686;2023-12-22T03:59:50;17.80;;;15.90;;
78901;SDS011;70441;44.758;37.686;2023-12-22T04:00:52;22.80;;;20.35;;
78901;SDS011;70441;44.758;37.686;2023-12-22T04:01:53;11.30;;;7.80;;
78901;SDS011;70441;44.758;37.686;2023-12-22T04:03:57;11.45;;;6.30;;
78901;SDS011;70441;44.758;37.686;2023-12-22T04:04:58;11.18;;;5.63;;
78901;SDS011;70441;44.758;37.686;2023-12-22T04:06:03;9.35;;;5.53;;
78901;SDS011;70441;44.758;37.686;2023-12-22T04:07:05;11.63;;;5.88;;
78901;SDS011;70441;44.758;37.686;2023-12-22T04:08:06;8.77;;;4.97;;
78901;SDS011;70441;44.758;37.686;2023-12-22T04:09:08;11.68;;;6.30;;
78901;SDS011;70441;44.758;37.686;2023-12-22T04:10:12;12.82;;;6.43;;
78901;SDS011;70441;44.758;37.686;2023-12-22T04:11:18;10.48;;;5.63;;
78901;SDS011;70441;44.758;37.686;2023-12-22T04:13:22;9.55;;;4.80;;
78901;SDS011;70441;44.758;37.686;2023-12-22T04:14:24;10.75;;;4.53;;
78901;SDS011;70441;44.758;37.686;2023-12-22T04:15:25;11.10;;;5.50;;
78901;SDS011;70441;44.758;37.686;2023-12-22T04:16:27;10.20;;;4.90;;
78901;SDS011;70441;44.758;37.686;2023-12-22T04:17:29;8.48;;;4.32;;
78901;SDS011;70441;44.758;37.686;2023-12-22T04:18:31;9.10;;;4.45;;
78901;SDS011;70441;44.758;37.686;2023-12-22T04:19:33;11.35;;;6.38;;
78901;SDS011;70441;44.758;37.686;2023-12-22T04:20:37;9.35;;;4.80;;
78901;SDS011;70441;44.758;37.686;2023-12-22T04:21:38;9.85;;;4.60;;
78901;SDS011;70441;44.758;37.686;2023-12-22T04:22:40;9.02;;;4.43;;
78901;SDS011;70441;44.758;37.686;2023-12-22T04:23:42;12.23;;;5.93;;
78901;SDS011;70441;44.758;37.686;2023-12-22T04:24:44;11.63;;;5.45;;
78901;SDS011;70441;44.758;37.686;2023-12-22T04:25:46;12.27;;;6.63;;
78901;SDS011;70441;44.758;37.686;2023-12-22T04:26:47;10.65;;;5.75;;
78901;SDS011;70441;44.758;37.686;2023-12-22T04:27:50;9.80;;;5.60;;
78901;SDS011;70441;44.758;37.686;2023-12-22T04:29:54;13.90;;;5.75;;
78901;SDS011;70441;44.758;37.686;2023-12-22T04:30:57;10.65;;;5.22;;
78901;SDS011;70441;44.758;37.686;2023-12-22T04:31:58;11.20;;;5.72;;
78901;SDS011;70441;44.758;37.686;2023-12-22T04:33:03;13.18;;;6.03;;
78901;SDS011;70441;44.758;37.686;2023-12-22T04:34:05;11.30;;;6.20;;
78901;SDS011;70441;44.758;37.686;2023-12-22T04:35:08;13.93;;;5.78;;
78901;SDS011;70441;44.758;37.686;2023-12-22T04:36:09;10.52;;;5.53;;
78901;SDS011;70441;44.758;37.686;2023-12-22T04:37:11;9.40;;;5.00;;
78901;SDS011;70441;44.758;37.686;2023-12-22T04:38:13;9.85;;;4.47;;
78901;SDS011;70441;44.758;37.686;2023-12-22T04:39:15;8.77;;;4.40;;
78901;SDS011;70441;44.758;37.686;2023-12-22T04:40:18;11.27;;;4.70;;
78901;SDS011;70441;44.758;37.686;2023-12-22T04:42:23;9.77;;;3.92;;
78901;SDS011;70441;44.758;37.686;2023-12-22T04:43:26;12.07;;;6.35;;
78901;SDS011;70441;44.758;37.686;2023-12-22T04:44:28;15.75;;;7.13;;
78901;SDS011;70441;44.758;37.686;2023-12-22T04:45:30;12.07;;;7.28;;
78901;SDS011;70441;44.758;37.686;2023-12-22T04:46:32;13.85;;;8.05;;
78901;SDS011;70441;44.758;37.686;2023-12-22T04:47:33;13.38;;;7.90;;
78901;SDS011;70441;44.758;37.686;2023-12-22T04:48:35;13.43;;;8.10;;
78901;SDS011;70441;44.758;37.686;2023-12-22T04:49:37;13.60;;;7.72;;
78901;SDS011;70441;44.758;37.686;2023-12-22T04:50:39;11.73;;;6.80;;
78901;SDS011;70441;44.758;37.686;2023-12-22T04:52:45;13.27;;;7.18;;
78901;SDS011;70441;44.758;37.686;2023-12-22T04:53:46;12.73;;;7.10;;
78901;SDS011;70441;44.758;37.686;2023-12-22T04:54:49;14.98;;;7.70;;
78901;SDS011;70441;44.758;37.686;2023-12-22T04:55:51;11.73;;;6.50;;
78901;SDS011;70441;44.758;37.686;2023-12-22T04:56:55;13.40;;;7.60;;
78901;SDS011;70441;44.758;37.686;2023-12-22T04:57:56;13.05;;;7.85;;
78901;SDS011;70441;44.758;37.686;2023-12-22T04:58:58;15.43;;;7.93;;
78901;SDS011;70441;44.758;37.686;2023-12-22T05:00:00;12.48;;;7.43;;
78901;SDS011;70441;44.758;37.686;2023-12-22T05:01:02;14.77;;;8.43;;
78901;SDS011;70441;44.758;37.686;2023-12-22T05:02:04;12.57;;;6.15;;
78901;SDS011;70441;44.758;37.686;2023-12-22T05:03:05;11.43;;;6.55;;
78901;SDS011;70441;44.758;37.686;2023-12-22T05:04:07;10.60;;;4.45;;
78901;SDS011;70441;44.758;37.686;2023-12-22T05:05:10;9.35;;;4.30;;
78901;SDS011;70441;44.758;37.686;2023-12-22T05:07:14;7.45;;;3.72;;
78901;SDS011;70441;44.758;37.686;2023-12-22T05:08:16;7.35;;;3.90;;
78901;SDS011;70441;44.758;37.686;2023-12-22T05:09:18;9.07;;;3.42;;
78901;SDS011;70441;44.758;37.686;2023-12-22T05:10:19;12.48;;;6.28;;
78901;SDS011;70441;44.758;37.686;2023-12-22T05:11:21;19.05;;;9.07;;
78901;SDS011;70441;44.758;37.686;2023-12-22T05:12:23;17.50;;;9.32;;
78901;SDS011;70441;44.758;37.686;2023-12-22T05:13:25;19.27;;;10.10;;
78901;SDS011;70441;44.758;37.686;2023-12-22T05:14:28;23.40;;;11.27;;
78901;SDS011;70441;44.758;37.686;2023-12-22T05:15:29;17.92;;;10.23;;
78901;SDS011;70441;44.758;37.686;2023-12-22T05:16:31;19.63;;;10.43;;
78901;SDS011;70441;44.758;37.686;2023-12-22T05:17:32;17.42;;;9.30;;
78901;SDS011;70441;44.758;37.686;2023-12-22T05:18:34;17.05;;;9.90;;
78901;SDS011;70441;44.758;37.686;2023-12-22T05:19:35;18.10;;;8.93;;
78901;SDS011;70441;44.758;37.686;2023-12-22T05:20:37;19.33;;;9.80;;
78901;SDS011;70441;44.758;37.686;2023-12-22T05:21:38;19.58;;;9.52;;
78901;SDS011;70441;44.758;37.686;2023-12-22T05:22:40;16.98;;;9.93;;
78901;SDS011;70441;44.758;37.686;2023-12-22T05:23:41;19.15;;;8.70;;
78901;SDS011;70441;44.758;37.686;2023-12-22T05:24:43;18.17;;;9.23;;
78901;SDS011;70441;44.758;37.686;2023-12-22T05:25:44;18.15;;;10.13;;
78901;SDS011;70441;44.758;37.686;2023-12-22T05:26:46;20.70;;;11.10;;
78901;SDS011;70441;44.758;37.686;2023-12-22T05:27:49;17.10;;;10.43;;
78901;SDS011;70441;44.758;37.686;2023-12-22T05:28:51;19.73;;;11.07;;
78901;SDS011;70441;44.758;37.686;2023-12-22T05:29:53;17.90;;;10.00;;
78901;SDS011;70441;44.758;37.686;2023-12-22T05:30:54;18.33;;;10.18;;
78901;SDS011;70441;44.758;37.686;2023-12-22T05:31:57;19.98;;;10.90;;
78901;SDS011;70441;44.758;37.686;2023-12-22T05:32:58;18.77;;;11.40;;
78901;SDS011;70441;44.758;37.686;2023-12-22T05:34:00;20.88;;;11.70;;
78901;SDS011;70441;44.758;37.686;2023-12-22T05:35:01;19.50;;;9.90;;
78901;SDS011;70441;44.758;37.686;2023-12-22T05:36:03;20.13;;;10.60;;
78901;SDS011;70441;44.758;37.686;2023-12-22T05:37:05;21.77;;;10.65;;
78901;SDS011;70441;44.758;37.686;2023-12-22T05:38:06;14.52;;;8.43;;
78901;SDS011;70441;44.758;37.686;2023-12-22T05:39:08;18.88;;;9.02;;
78901;SDS011;70441;44.758;37.686;2023-12-22T05:40:10;14.57;;;8.77;;
78901;SDS011;70441;44.758;37.686;2023-12-22T05:41:12;20.40;;;10.35;;
78901;SDS011;70441;44.758;37.686;2023-12-22T05:42:14;20.77;;;11.02;;
78901;SDS011;70441;44.758;37.686;2023-12-22T05:43:15;20.00;;;11.40;;
78901;SDS011;70441;44.758;37.686;2023-12-22T05:44:17;20.13;;;10.73;;
78901;SDS011;70441;44.758;37.686;2023-12-22T05:45:19;17.60;;;9.23;;
78901;SDS011;70441;44.758;37.686;2023-12-22T05:46:21;17.30;;;9.48;;
78901;SDS011;70441;44.758;37.686;2023-12-22T05:47:23;19.42;;;9.45;;
78901;SDS011;70441;44.758;37.686;2023-12-22T05:48:24;26.42;;;11.40;;
78901;SDS011;70441;44.758;37.686;2023-12-22T05:49:27;16.38;;;10.00;;
78901;SDS011;70441;44.758;37.686;2023-12-22T05:50:28;17.30;;;9.82;;
78901;SDS011;70441;44.758;37.686;2023-12-22T05:51:35;20.42;;;10.35;;
78901;SDS011;70441;44.758;37.686;2023-12-22T05:52:40;22.80;;;10.93;;
78901;SDS011;70441;44.758;37.686;2023-12-22T05:53:42;24.55;;;12.07;;
78901;SDS011;70441;44.758;37.686;2023-12-22T05:54:44;20.42;;;10.60;;
78901;SDS011;70441;44.758;37.686;2023-12-22T05:55:45;18.67;;;10.63;;
78901;SDS011;70441;44.758;37.686;2023-12-22T05:56:46;21.55;;;9.82;;
78901;SDS011;70441;44.758;37.686;2023-12-22T05:57:49;20.23;;;10.18;;
78901;SDS011;70441;44.758;37.686;2023-12-22T05:58:57;19.92;;;10.15;;
78901;SDS011;70441;44.758;37.686;2023-12-22T06:00:00;27.90;;;10.45;;
78901;SDS011;70441;44.758;37.686;2023-12-22T06:01:13;21.40;;;11.30;;
78901;SDS011;70441;44.758;37.686;2023-12-22T06:02:16;19.80;;;10.38;;
78901;SDS011;70441;44.758;37.686;2023-12-22T06:03:18;16.85;;;10.30;;
78901;SDS011;70441;44.758;37.686;2023-12-22T06:04:20;17.83;;;10.77;;
78901;SDS011;70441;44.758;37.686;2023-12-22T06:05:21;23.08;;;10.80;;
78901;SDS011;70441;44.758;37.686;2023-12-22T06:08:12;18.65;;;9.18;;
78901;SDS011;70441;44.758;37.686;2023-12-22T06:09:13;18.85;;;9.25;;
78901;SDS011;70441;44.758;37.686;2023-12-22T06:10:15;21.23;;;10.50;;
78901;SDS011;70441;44.758;37.686;2023-12-22T06:11:16;19.63;;;9.80;;
78901;SDS011;70441;44.758;37.686;2023-12-22T06:12:18;16.73;;;8.77;;
78901;SDS011;70441;44.758;37.686;2023-12-22T06:13:19;17.42;;;10.10;;
78901;SDS011;70441;44.758;37.686;2023-12-22T06:14:21;23.33;;;11.00;;
78901;SDS011;70441;44.758;37.686;2023-12-22T06:15:23;21.50;;;9.63;;
78901;SDS011;70441;44.758;37.686;2023-12-22T06:16:25;18.48;;;10.15;;
78901;SDS011;70441;44.758;37.686;2023-12-22T06:17:27;23.55;;;10.70;;
78901;SDS011;70441;44.758;37.686;2023-12-22T06:18:29;18.10;;;9.73;;
78901;SDS011;70441;44.758;37.686;2023-12-22T06:19:30;18.02;;;9.93;;
78901;SDS011;70441;44.758;37.686;2023-12-22T06:20:32;17.65;;;9.63;;
78901;SDS011;70441;44.758;37.686;2023-12-22T06:21:37;20.10;;;9.90;;
78901;SDS011;70441;44.758;37.686;2023-12-22T06:22:39;15.60;;;9.23;;
78901;SDS011;70441;44.758;37.686;2023-12-22T06:23:41;18.13;;;9.00;;
78901;SDS011;70441;44.758;37.686;2023-12-22T06:24:43;16.33;;;9.15;;
78901;SDS011;70441;44.758;37.686;2023-12-22T06:26:50;16.08;;;9.02;;
78901;SDS011;70441;44.758;37.686;2023-12-22T06:27:51;16.25;;;8.45;;
78901;SDS011;70441;44.758;37.686;2023-12-22T06:28:53;14.40;;;7.53;;
78901;SDS011;70441;44.758;37.686;2023-12-22T06:30:13;18.42;;;7.28;;
78901;SDS011;70441;44.758;37.686;2023-12-22T06:31:18;20.25;;;8.48;;
78901;SDS011;70441;44.758;37.686;2023-12-22T06:32:21;14.18;;;7.47;;
78901;SDS011;70441;44.758;37.686;2023-12-22T06:33:23;20.75;;;8.85;;
78901;SDS011;70441;44.758;37.686;2023-12-22T06:34:24;14.65;;;7.80;;
78901;SDS011;70441;44.758;37.686;2023-12-22T06:35:26;16.38;;;8.70;;
78901;SDS011;70441;44.758;37.686;2023-12-22T06:36:28;22.75;;;12.73;;
78901;SDS011;70441;44.758;37.686;2023-12-22T06:37:33;17.30;;;9.10;;
78901;SDS011;70441;44.758;37.686;2023-12-22T06:38:35;15.57;;;8.20;;
78901;SDS011;70441;44.758;37.686;2023-12-22T06:39:37;16.45;;;8.35;;
78901;SDS011;70441;44.758;37.686;2023-12-22T06:40:39;15.40;;;8.52;;
78901;SDS011;70441;44.758;37.686;2023-12-22T06:41:40;17.52;;;8.10;;
78901;SDS011;70441;44.758;37.686;2023-12-22T06:42:42;16.08;;;8.10;;
78901;SDS011;70441;44.758;37.686;2023-12-22T06:43:43;15.07;;;8.55;;
78901;SDS011;70441;44.758;37.686;2023-12-22T06:44:45;18.38;;;9.00;;
78901;SDS011;70441;44.758;37.686;2023-12-22T06:45:46;18.55;;;9.85;;
78901;SDS011;70441;44.758;37.686;2023-12-22T06:46:48;16.42;;;9.75;;
78901;SDS011;70441;44.758;37.686;2023-12-22T06:53:07;12.93;;;7.68;;
78901;SDS011;70441;44.758;37.686;2023-12-22T06:54:09;14.27;;;7.32;;
78901;SDS011;70441;44.758;37.686;2023-12-22T06:55:10;11.57;;;6.00;;
78901;SDS011;70441;44.758;37.686;2023-12-22T06:56:15;12.43;;;5.55;;
78901;SDS011;70441;44.758;37.686;2023-12-22T06:57:24;12.55;;;5.82;;
78901;SDS011;70441;44.758;37.686;2023-12-22T06:58:26;10.57;;;5.60;;